createdAt,value
2023-03-16T00:02:04.067Z,6.80
2023-03-16T00:04:31.558Z,6.80
2023-03-16T00:06:58.970Z,6.80
2023-03-16T00:09:31.040Z,6.70
2023-03-16T00:11:59.019Z,6.70
2023-03-16T00:14:26.473Z,6.80
2023-03-16T00:16:53.384Z,6.80
2023-03-16T00:19:23.018Z,6.60
2023-03-16T00:21:52.978Z,6.70
2023-03-16T00:24:20.610Z,6.60
2023-03-16T00:26:48.068Z,6.90
2023-03-16T00:29:14.885Z,6.60
2023-03-16T00:31:45.249Z,7.00
2023-03-16T00:34:12.948Z,7.00
2023-03-16T00:36:39.617Z,6.90
2023-03-16T00:39:07.020Z,6.60
2023-03-16T00:41:38.086Z,7.00
2023-03-16T00:44:07.295Z,7.00
2023-03-16T00:46:34.107Z,6.80
2023-03-16T00:49:02.825Z,6.90
2023-03-16T00:51:33.681Z,6.90
2023-03-16T00:54:00.426Z,7.10
2023-03-16T00:56:27.293Z,6.80
2023-03-16T00:58:57.816Z,7.10
2023-03-16T01:01:24.928Z,7.10
2023-03-16T01:03:51.927Z,7.10
2023-03-16T01:06:20.709Z,7.10
2023-03-16T01:08:47.511Z,6.90
2023-03-16T01:11:17.528Z,6.90
2023-03-16T01:13:47.823Z,7.10
2023-03-16T01:16:15.991Z,7.00
2023-03-16T01:18:42.776Z,7.10
2023-03-16T01:21:13.723Z,7.00
2023-03-16T01:23:40.842Z,7.10
2023-03-16T01:26:08.386Z,7.10
2023-03-16T01:28:35.182Z,7.10
2023-03-16T01:31:07.894Z,6.90
2023-03-16T01:33:35.625Z,6.80
2023-03-16T01:36:14.547Z,7.10
2023-03-16T01:38:41.867Z,7.00
2023-03-16T01:41:09.190Z,7.10
2023-03-16T01:43:37.947Z,6.80
2023-03-16T01:46:04.885Z,6.90
2023-03-16T01:48:37.460Z,7.00
2023-03-16T01:51:11.970Z,6.90
2023-03-16T01:53:42.338Z,7.30
2023-03-16T01:56:10.952Z,7.10
2023-03-16T01:58:38.663Z,7.00
2023-03-16T02:01:05.694Z,7.10
2023-03-16T02:03:36.127Z,7.10
2023-03-16T02:06:15.157Z,7.00
2023-03-16T02:08:45.324Z,7.00
2023-03-16T02:11:13.082Z,6.90
2023-03-16T02:13:40.268Z,6.80
2023-03-16T02:16:08.700Z,7.20
2023-03-16T02:18:36.247Z,7.30
2023-03-16T02:21:19.505Z,7.20
2023-03-16T02:23:47.256Z,7.30
2023-03-16T02:26:44.891Z,7.40
2023-03-16T02:29:49.711Z,7.40
2023-03-16T02:32:18.047Z,7.10
2023-03-16T02:34:45.091Z,6.90
2023-03-16T02:37:12.250Z,7.40
2023-03-16T02:39:39.093Z,7.10
2023-03-16T02:42:06.066Z,7.10
2023-03-16T02:44:36.949Z,7.10
2023-03-16T02:47:11.993Z,7.20
2023-03-16T02:49:42.186Z,6.90
2023-03-16T02:52:09.191Z,6.90
2023-03-16T02:54:36.116Z,7.20
2023-03-16T02:57:02.904Z,7.30
2023-03-16T02:59:29.696Z,6.90
2023-03-16T03:01:56.819Z,7.30
2023-03-16T03:04:24.616Z,7.30
2023-03-16T03:06:52.064Z,7.40
2023-03-16T03:09:19.388Z,7.10
2023-03-16T03:11:50.626Z,7.40
2023-03-16T03:14:17.441Z,7.40
2023-03-16T03:16:47.261Z,7.30
2023-03-16T03:19:14.174Z,6.90
2023-03-16T03:21:41.423Z,7.30
2023-03-16T03:24:09.179Z,7.40
2023-03-16T03:26:38.121Z,7.40
2023-03-16T03:29:05.237Z,7.30
2023-03-16T03:31:32.237Z,7.30
2023-03-16T03:33:59.539Z,7.40
2023-03-16T03:36:26.420Z,7.10
2023-03-16T03:38:54.965Z,7.30
2023-03-16T03:41:22.502Z,7.40
2023-03-16T03:43:49.364Z,7.40
2023-03-16T03:46:16.345Z,7.00
2023-03-16T03:48:43.117Z,7.10
2023-03-16T03:51:09.941Z,7.10
2023-03-16T03:53:37.105Z,7.10
2023-03-16T03:56:03.846Z,6.90
2023-03-16T03:58:30.648Z,7.20
2023-03-16T04:00:57.433Z,6.90
2023-03-16T04:03:24.269Z,6.90
2023-03-16T04:05:51.165Z,7.30
2023-03-16T04:08:17.906Z,7.30
2023-03-16T04:10:44.813Z,7.20
2023-03-16T04:13:11.543Z,7.10
2023-03-16T04:15:38.817Z,7.20
2023-03-16T04:18:05.680Z,7.10
2023-03-16T04:20:32.745Z,7.30
2023-03-16T04:22:59.667Z,7.40
2023-03-16T04:25:28.529Z,7.10
2023-03-16T04:27:55.432Z,7.30
2023-03-16T04:30:25.803Z,7.40
2023-03-16T04:32:52.803Z,7.30
2023-03-16T04:35:19.680Z,7.40
2023-03-16T04:37:46.470Z,7.30
2023-03-16T04:40:16.434Z,7.30
2023-03-16T04:42:47.447Z,6.90
2023-03-16T04:45:15.648Z,7.30
2023-03-16T04:47:42.540Z,7.30
2023-03-16T04:50:10.826Z,7.10
2023-03-16T04:52:37.792Z,7.10
2023-03-16T04:55:06.067Z,7.00
2023-03-16T04:57:32.997Z,7.10
2023-03-16T04:59:59.735Z,7.20
2023-03-16T05:02:26.458Z,7.10
2023-03-16T05:04:53.354Z,7.30
2023-03-16T05:07:20.094Z,6.80
2023-03-16T05:09:46.940Z,6.80
2023-03-16T05:12:13.812Z,6.90
2023-03-16T05:14:40.636Z,6.80
2023-03-16T05:17:07.538Z,7.20
2023-03-16T05:19:34.391Z,7.30
2023-03-16T05:22:01.261Z,7.30
2023-03-16T05:24:28.051Z,7.30
2023-03-16T05:26:54.917Z,6.90
2023-03-16T05:29:21.813Z,7.00
2023-03-16T05:31:48.662Z,7.20
2023-03-16T05:34:15.855Z,7.00
2023-03-16T05:36:44.950Z,7.00
2023-03-16T05:39:11.844Z,7.00
2023-03-16T05:41:39.305Z,7.10
2023-03-16T05:44:06.195Z,7.10
2023-03-16T05:46:33.573Z,7.30
2023-03-16T05:49:00.660Z,7.30
2023-03-16T05:51:27.646Z,7.30
2023-03-16T05:53:57.975Z,7.30
2023-03-16T05:56:26.496Z,7.30
2023-03-16T05:58:55.251Z,7.20
2023-03-16T06:01:23.177Z,7.20
2023-03-16T06:03:51.975Z,7.20
2023-03-16T06:06:22.421Z,7.50
2023-03-16T06:08:49.315Z,7.60
2023-03-16T06:11:16.324Z,7.40
2023-03-16T06:13:43.256Z,7.30
2023-03-16T06:16:13.894Z,7.20
2023-03-16T06:18:41.537Z,7.30
2023-03-16T06:21:08.485Z,7.40
2023-03-16T06:23:35.397Z,7.60
2023-03-16T06:26:02.294Z,7.30
2023-03-16T06:28:29.121Z,7.50
2023-03-16T06:30:57.566Z,7.10
2023-03-16T06:33:25.042Z,7.60
2023-03-16T06:35:51.918Z,7.60
2023-03-16T06:38:20.192Z,7.60
2023-03-16T06:40:52.482Z,7.50
2023-03-16T06:43:19.786Z,7.60
2023-03-16T06:45:46.728Z,7.40
2023-03-16T06:48:13.556Z,7.60
2023-03-16T06:50:40.392Z,7.50
2023-03-16T06:53:07.204Z,7.20
2023-03-16T06:55:34.361Z,7.70
2023-03-16T06:58:01.385Z,7.70
2023-03-16T07:00:28.315Z,7.60
2023-03-16T07:02:55.253Z,7.60
2023-03-16T07:05:22.069Z,7.70
2023-03-16T07:07:48.880Z,7.70
2023-03-16T07:10:18.184Z,7.90
2023-03-16T07:12:45.034Z,7.90
2023-03-16T07:15:12.616Z,7.90
2023-03-16T07:17:39.712Z,8.00
2023-03-16T07:20:10.428Z,8.00
2023-03-16T07:22:38.426Z,8.00
2023-03-16T07:25:06.609Z,7.90
2023-03-16T07:27:33.687Z,7.80
2023-03-16T07:30:00.778Z,7.70
2023-03-16T07:32:27.634Z,7.90
2023-03-16T07:34:54.593Z,8.10
2023-03-16T07:37:25.365Z,8.10
2023-03-16T07:39:53.087Z,8.20
2023-03-16T07:42:20.021Z,8.20
2023-03-16T07:44:46.876Z,8.10
2023-03-16T07:47:14.982Z,8.10
2023-03-16T07:49:42.712Z,8.20
2023-03-16T07:52:13.654Z,8.20
2023-03-16T07:54:41.347Z,8.50
2023-03-16T07:57:09.073Z,8.60
2023-03-16T07:59:35.847Z,8.60
2023-03-16T08:02:03.178Z,9.00
2023-03-16T08:04:31.189Z,9.00
2023-03-16T08:07:00.395Z,9.00
2023-03-16T08:09:27.889Z,8.80
2023-03-16T08:11:55.036Z,8.60
2023-03-16T08:14:21.948Z,8.70
2023-03-16T08:16:48.709Z,8.90
2023-03-16T08:19:15.826Z,8.80
2023-03-16T08:21:57.681Z,8.80
2023-03-16T08:24:30.190Z,9.10
2023-03-16T08:26:57.553Z,9.10
2023-03-16T08:29:25.403Z,9.10
2023-03-16T08:31:56.476Z,9.10
2023-03-16T08:34:24.617Z,8.80
2023-03-16T08:36:51.397Z,9.30
2023-03-16T08:39:18.140Z,9.30
2023-03-16T08:41:45.981Z,9.30
2023-03-16T08:44:13.254Z,9.40
2023-03-16T08:46:40.850Z,9.50
2023-03-16T08:49:07.706Z,9.40
2023-03-16T08:51:34.891Z,9.30
2023-03-16T08:54:01.737Z,9.30
2023-03-16T08:56:30.537Z,9.30
2023-03-16T08:58:57.701Z,9.40
2023-03-16T09:01:25.931Z,9.30
2023-03-16T09:03:53.062Z,9.40
2023-03-16T09:06:20.014Z,9.50
2023-03-16T09:08:47.765Z,9.60
2023-03-16T09:11:17.970Z,9.50
2023-03-16T09:13:45.261Z,9.40
2023-03-16T09:16:13.827Z,9.50
2023-03-16T09:18:42.208Z,9.30
2023-03-16T09:21:13.169Z,9.80
2023-03-16T09:23:41.925Z,9.70
2023-03-16T09:26:09.564Z,9.60
2023-03-16T09:28:38.836Z,10.10
2023-03-16T09:31:06.359Z,9.90
2023-03-16T09:33:33.881Z,9.80
2023-03-16T09:36:01.832Z,9.60
2023-03-16T09:38:29.232Z,9.60
2023-03-16T09:41:00.651Z,9.70
2023-03-16T09:43:49.359Z,9.70
2023-03-16T09:46:24.769Z,9.80
2023-03-16T09:48:52.486Z,9.80
2023-03-16T09:51:43.385Z,9.80
2023-03-16T09:54:49.435Z,10.00
2023-03-16T09:57:36.863Z,10.20
2023-03-16T10:00:24.308Z,10.20
2023-03-16T10:03:24.688Z,10.30
2023-03-16T10:05:59.459Z,10.60
2023-03-16T10:08:40.882Z,10.30
2023-03-16T10:11:31.978Z,10.60
2023-03-16T10:14:25.300Z,10.80
2023-03-16T10:17:17.847Z,10.60
2023-03-16T10:20:04.747Z,10.70
2023-03-16T10:22:34.846Z,10.80
2023-03-16T10:25:22.105Z,11.00
2023-03-16T10:27:49.179Z,10.70
2023-03-16T10:30:24.655Z,10.50
2023-03-16T10:32:52.332Z,10.90
2023-03-16T10:35:48.976Z,10.70
2023-03-16T10:38:40.156Z,11.00
2023-03-16T10:41:22.335Z,11.10
2023-03-16T10:44:01.899Z,11.00
2023-03-16T10:46:35.620Z,11.30
2023-03-16T10:49:02.621Z,11.10
2023-03-16T10:51:32.456Z,11.20
2023-03-16T10:54:14.809Z,11.00
2023-03-16T10:56:41.877Z,11.20
2023-03-16T10:59:34.129Z,11.10
2023-03-16T11:02:05.616Z,11.40
2023-03-16T11:04:33.515Z,11.30
2023-03-16T11:07:00.319Z,11.40
2023-03-16T11:09:34.820Z,11.50
2023-03-16T11:12:23.370Z,11.40
2023-03-16T11:14:50.495Z,11.40
2023-03-16T11:17:25.428Z,11.30
2023-03-16T11:20:00.644Z,11.40
2023-03-16T11:22:30.160Z,11.50
2023-03-16T11:25:04.234Z,11.50
2023-03-16T11:28:04.191Z,11.40
2023-03-16T11:31:06.736Z,11.60
2023-03-16T11:33:34.974Z,11.70
2023-03-16T11:36:25.363Z,11.80
2023-03-16T11:39:09.270Z,11.90
2023-03-16T11:41:56.507Z,11.60
2023-03-16T11:44:29.798Z,11.70
2023-03-16T11:47:16.437Z,12.00
2023-03-16T11:50:02.171Z,12.10
2023-03-16T11:52:58.373Z,12.50
2023-03-16T11:55:35.699Z,12.30
2023-03-16T11:58:11.858Z,12.30
2023-03-16T12:01:08.840Z,12.40
2023-03-16T12:03:55.161Z,12.60
2023-03-16T12:06:32.819Z,12.40
2023-03-16T12:09:18.571Z,12.60
2023-03-16T12:12:00.002Z,12.90
2023-03-16T12:14:50.090Z,12.60
2023-03-16T12:17:23.290Z,12.70
2023-03-16T12:19:55.519Z,12.80
2023-03-16T12:22:28.423Z,12.90
2023-03-16T12:24:55.358Z,13.10
2023-03-16T12:27:30.197Z,13.30
2023-03-16T12:30:20.558Z,13.50
2023-03-16T12:33:13.835Z,13.30
2023-03-16T12:36:01.329Z,13.30
2023-03-16T12:38:51.070Z,13.40
2023-03-16T12:41:34.408Z,13.50
2023-03-16T12:44:14.752Z,13.20
2023-03-16T12:47:03.323Z,13.40
2023-03-16T12:49:33.652Z,13.20
2023-03-16T12:52:00.427Z,13.20
2023-03-16T12:54:27.741Z,13.40
2023-03-16T12:57:02.674Z,13.20
2023-03-16T12:59:58.388Z,13.40
2023-03-16T13:02:30.143Z,13.20
2023-03-16T13:05:07.611Z,13.20
2023-03-16T13:07:35.504Z,13.50
2023-03-16T13:10:14.794Z,13.60
2023-03-16T13:12:42.138Z,13.60
2023-03-16T13:15:19.848Z,13.60
2023-03-16T13:17:49.200Z,13.40
2023-03-16T13:20:53.492Z,13.40
2023-03-16T13:23:24.933Z,13.40
2023-03-16T13:26:14.026Z,13.50
2023-03-16T13:28:41.575Z,13.40
2023-03-16T13:31:29.594Z,13.50
2023-03-16T13:34:00.047Z,13.60
2023-03-16T13:36:29.959Z,13.70
2023-03-16T13:39:02.724Z,13.80
2023-03-16T13:41:29.437Z,13.70
2023-03-16T13:43:56.493Z,13.70
2023-03-16T13:46:29.302Z,13.70
2023-03-16T13:49:00.839Z,13.80
2023-03-16T13:51:31.102Z,14.00
2023-03-16T13:53:59.280Z,14.10
2023-03-16T13:56:29.317Z,14.00
2023-03-16T13:58:58.552Z,14.00
2023-03-16T14:01:30.998Z,13.80
2023-03-16T14:04:08.871Z,14.20
2023-03-16T14:06:36.713Z,13.80
2023-03-16T14:09:08.039Z,14.20
2023-03-16T14:11:35.042Z,13.90
2023-03-16T14:14:13.121Z,13.90
2023-03-16T14:16:39.918Z,14.00
2023-03-16T14:19:19.306Z,14.10
2023-03-16T14:21:46.601Z,13.70
2023-03-16T14:24:35.815Z,13.90
2023-03-16T14:27:32.726Z,14.00
2023-03-16T14:30:01.977Z,13.90
2023-03-16T14:32:31.254Z,14.00
2023-03-16T14:35:13.141Z,13.90
2023-03-16T14:37:41.943Z,13.90
2023-03-16T14:40:25.655Z,14.00
2023-03-16T14:42:54.765Z,14.00
2023-03-16T14:45:22.808Z,14.10
2023-03-16T14:47:50.803Z,14.20
2023-03-16T14:50:26.033Z,14.00
2023-03-16T14:52:55.963Z,14.20
2023-03-16T14:55:24.073Z,14.20
2023-03-16T14:57:54.020Z,14.30
2023-03-16T15:00:22.984Z,14.10
2023-03-16T15:03:08.482Z,14.30
2023-03-16T15:05:44.767Z,14.20
2023-03-16T15:08:27.487Z,14.50
2023-03-16T15:11:00.936Z,14.30
2023-03-16T15:13:37.085Z,14.40
2023-03-16T15:16:05.622Z,14.50
2023-03-16T15:18:33.724Z,14.60
2023-03-16T15:21:02.223Z,14.30
2023-03-16T15:23:30.893Z,14.30
2023-03-16T15:26:02.801Z,14.20
2023-03-16T15:28:29.710Z,14.30
2023-03-16T15:31:01.969Z,14.40
2023-03-16T15:33:29.541Z,14.30
2023-03-16T15:35:59.179Z,14.20
2023-03-16T15:38:30.097Z,14.40
2023-03-16T15:40:57.145Z,14.30
2023-03-16T15:43:27.336Z,14.20
2023-03-16T15:45:57.586Z,14.20
2023-03-16T15:48:24.744Z,14.20
2023-03-16T15:51:01.045Z,14.10
2023-03-16T15:53:38.131Z,14.30
2023-03-16T15:56:09.686Z,14.20
2023-03-16T15:58:38.140Z,14.10
2023-03-16T16:01:05.933Z,14.10
2023-03-16T16:03:33.824Z,13.90
2023-03-16T16:06:01.307Z,14.20
2023-03-16T16:08:28.751Z,13.90
2023-03-16T16:10:56.189Z,14.10
2023-03-16T16:13:43.208Z,13.70
2023-03-16T16:16:15.962Z,13.90
2023-03-16T16:18:43.193Z,14.00
2023-03-16T16:21:23.343Z,13.80
2023-03-16T16:23:52.296Z,13.70
2023-03-16T16:26:46.973Z,13.70
2023-03-16T16:29:24.455Z,13.70
2023-03-16T16:31:52.034Z,13.60
2023-03-16T16:34:21.814Z,13.50
2023-03-16T16:36:49.166Z,13.60
2023-03-16T16:39:16.469Z,13.60
2023-03-16T16:41:44.526Z,13.70
2023-03-16T16:44:23.803Z,13.70
2023-03-16T16:46:52.091Z,13.50
2023-03-16T16:49:28.373Z,13.40
2023-03-16T16:51:55.533Z,13.20
2023-03-16T16:54:25.566Z,13.40
2023-03-16T16:56:57.555Z,13.40
2023-03-16T16:59:29.075Z,13.30
2023-03-16T17:01:57.439Z,13.40
2023-03-16T17:04:27.469Z,13.30
2023-03-16T17:06:58.725Z,13.10
2023-03-16T17:09:27.341Z,13.10
2023-03-16T17:11:56.439Z,13.30
2023-03-16T17:14:28.453Z,13.10
2023-03-16T17:16:56.198Z,13.00
2023-03-16T17:19:29.694Z,13.00
2023-03-16T17:21:58.675Z,13.20
2023-03-16T17:24:26.073Z,13.20
2023-03-16T17:26:55.958Z,13.10
2023-03-16T17:29:27.991Z,13.00
2023-03-16T17:31:54.937Z,13.00
2023-03-16T17:34:27.898Z,13.00
2023-03-16T17:36:55.884Z,13.10
2023-03-16T17:39:22.635Z,12.90
2023-03-16T17:41:57.290Z,13.00
2023-03-16T17:44:26.098Z,12.90
2023-03-16T17:46:53.233Z,12.90
2023-03-16T17:49:20.632Z,12.70
2023-03-16T17:51:47.951Z,12.70
2023-03-16T17:54:14.785Z,12.60
2023-03-16T17:56:41.805Z,12.70
2023-03-16T17:59:19.953Z,12.60
2023-03-16T18:01:47.994Z,12.80
2023-03-16T18:04:23.627Z,12.50
2023-03-16T18:06:51.610Z,12.90
2023-03-16T18:09:20.109Z,12.70
2023-03-16T18:11:51.002Z,12.80
2023-03-16T18:14:35.392Z,12.60
2023-03-16T18:17:26.838Z,12.70
2023-03-16T18:19:53.937Z,12.70
2023-03-16T18:22:24.665Z,12.70
2023-03-16T18:24:53.978Z,12.70
2023-03-16T18:27:21.482Z,12.50
2023-03-16T18:29:48.475Z,12.90
2023-03-16T18:32:26.250Z,12.50
2023-03-16T18:34:54.324Z,12.70
2023-03-16T18:37:24.277Z,12.60
2023-03-16T18:39:52.765Z,12.40
2023-03-16T18:42:25.991Z,12.40
2023-03-16T18:44:53.999Z,12.40
2023-03-16T18:47:24.010Z,12.40
2023-03-16T18:49:54.089Z,12.60
2023-03-16T18:52:27.937Z,12.40
2023-03-16T18:54:55.778Z,12.50
2023-03-16T18:57:28.102Z,12.20
2023-03-16T18:59:55.340Z,12.50
2023-03-16T19:02:41.166Z,12.30
2023-03-16T19:05:20.671Z,12.40
2023-03-16T19:07:49.881Z,12.20
2023-03-16T19:10:30.093Z,12.40
2023-03-16T19:12:57.015Z,12.30
2023-03-16T19:15:32.721Z,12.10
2023-03-16T19:17:59.987Z,12.20
2023-03-16T19:20:31.857Z,12.10
2023-03-16T19:23:07.506Z,12.20
2023-03-16T19:25:39.850Z,12.10
2023-03-16T19:28:12.933Z,12.10
2023-03-16T19:30:39.927Z,11.90
2023-03-16T19:33:26.413Z,12.10
2023-03-16T19:35:55.346Z,12.00
2023-03-16T19:38:24.142Z,12.10
2023-03-16T19:40:59.553Z,11.90
2023-03-16T19:43:28.625Z,11.80
2023-03-16T19:45:56.517Z,11.80
2023-03-16T19:48:32.741Z,11.80
2023-03-16T19:51:00.793Z,12.10
2023-03-16T19:53:27.724Z,11.70
2023-03-16T19:55:54.881Z,12.10
2023-03-16T19:58:49.513Z,11.80
2023-03-16T20:01:22.134Z,12.00
2023-03-16T20:03:50.933Z,12.00
2023-03-16T20:06:20.503Z,11.80
2023-03-16T20:08:48.436Z,12.10
2023-03-16T20:11:27.337Z,11.90
2023-03-16T20:13:55.502Z,11.90
2023-03-16T20:16:26.953Z,12.00
2023-03-16T20:18:56.123Z,12.10
2023-03-16T20:21:23.296Z,11.70
2023-03-16T20:23:50.831Z,11.80
2023-03-16T20:26:21.417Z,11.90
2023-03-16T20:28:48.456Z,11.90
2023-03-16T20:31:29.614Z,11.90
2023-03-16T20:33:56.678Z,12.00
2023-03-16T20:36:24.487Z,12.10
2023-03-16T20:38:51.299Z,11.80
2023-03-16T20:41:30.344Z,11.80
2023-03-16T20:43:59.753Z,12.00
2023-03-16T20:46:29.583Z,11.90
2023-03-16T20:48:57.258Z,11.70
2023-03-16T20:51:24.645Z,11.80
2023-03-16T20:53:51.542Z,11.60
2023-03-16T20:56:24.225Z,11.60
2023-03-16T20:58:52.042Z,11.80
2023-03-16T21:01:21.609Z,11.90
2023-03-16T21:03:55.134Z,11.70
2023-03-16T21:06:29.998Z,12.00
2023-03-16T21:09:00.194Z,11.80
2023-03-16T21:11:37.288Z,11.70
2023-03-16T21:14:06.199Z,11.60
2023-03-16T21:16:33.284Z,11.80
2023-03-16T21:19:00.258Z,11.70
2023-03-16T21:21:26.997Z,11.80
2023-03-16T21:23:53.798Z,11.70
2023-03-16T21:26:24.565Z,11.70
2023-03-16T21:28:58.915Z,11.80
2023-03-16T21:31:26.505Z,11.70
2023-03-16T21:33:55.188Z,11.70
2023-03-16T21:36:26.177Z,11.60
2023-03-16T21:38:54.372Z,11.50
2023-03-16T21:41:21.552Z,11.80
2023-03-16T21:43:50.014Z,11.60
2023-03-16T21:46:22.344Z,11.50
2023-03-16T21:48:52.341Z,11.60
2023-03-16T21:51:22.254Z,11.70
2023-03-16T21:53:49.718Z,11.50
2023-03-16T21:56:19.208Z,11.70
2023-03-16T21:58:47.277Z,11.90
2023-03-16T22:01:27.575Z,11.60
2023-03-16T22:03:57.659Z,11.70
2023-03-16T22:06:28.036Z,11.70
2023-03-16T22:08:55.637Z,11.50
2023-03-16T22:11:26.109Z,11.60
2023-03-16T22:13:52.936Z,11.60
2023-03-16T22:16:24.291Z,11.80
2023-03-16T22:18:55.118Z,11.40
2023-03-16T22:21:30.865Z,11.80
2023-03-16T22:23:59.257Z,11.60
2023-03-16T22:26:27.761Z,11.50
2023-03-16T22:28:56.243Z,11.80
2023-03-16T22:31:35.614Z,11.40
2023-03-16T22:34:03.440Z,11.80
2023-03-16T22:36:32.360Z,11.90
2023-03-16T22:39:02.770Z,11.70
2023-03-16T22:41:30.276Z,11.80
2023-03-16T22:43:58.038Z,11.70
2023-03-16T22:46:26.835Z,11.80
2023-03-16T22:48:55.070Z,11.70
2023-03-16T22:51:37.936Z,11.70
2023-03-16T22:54:15.740Z,11.60
2023-03-16T22:56:45.139Z,11.80
2023-03-16T22:59:16.746Z,11.60
2023-03-16T23:01:46.299Z,11.70
2023-03-16T23:04:15.498Z,11.80
2023-03-16T23:06:42.828Z,11.60
2023-03-16T23:09:16.783Z,12.00
2023-03-16T23:11:45.224Z,11.80
2023-03-16T23:14:18.301Z,11.70
2023-03-16T23:16:46.229Z,11.90
2023-03-16T23:19:43.630Z,11.90
2023-03-16T23:22:11.168Z,12.00
2023-03-16T23:24:38.167Z,11.80
2023-03-16T23:27:07.187Z,11.90
2023-03-16T23:29:33.854Z,12.00
2023-03-16T23:32:01.148Z,12.00
2023-03-16T23:34:28.010Z,12.00
2023-03-16T23:36:54.869Z,12.10
2023-03-16T23:39:21.551Z,11.90
2023-03-16T23:41:50.707Z,12.20
2023-03-16T23:44:28.990Z,12.00
2023-03-16T23:46:56.269Z,11.80
2023-03-16T23:49:27.601Z,12.00
2023-03-16T23:51:57.690Z,12.10
2023-03-16T23:54:27.854Z,12.00
2023-03-16T23:56:55.206Z,12.00
2023-03-16T23:59:23.468Z,11.90
